sensor_id;sensor_type;location;lat;lon;timestamp;temperature;humidity
54824;DHT22;40724;53.196;5.980;2023-11-19T00:00:50;10.00;99.90
54824;DHT22;40724;53.196;5.980;2023-11-19T00:03:17;10.00;99.90
54824;DHT22;40724;53.196;5.980;2023-11-19T00:05:43;10.00;99.90
54824;DHT22;40724;53.196;5.980;2023-11-19T00:08:10;10.10;99.90
54824;DHT22;40724;53.196;5.980;2023-11-19T00:10:36;10.00;99.90
54824;DHT22;40724;53.196;5.980;2023-11-19T00:13:01;10.10;99.90
54824;DHT22;40724;53.196;5.980;2023-11-19T00:15:28;10.10;99.90
54824;DHT22;40724;53.196;5.980;2023-11-19T00:17:54;10.10;99.90
54824;DHT22;40724;53.196;5.980;2023-11-19T00:20:20;10.10;99.90
54824;DHT22;40724;53.196;5.980;2023-11-19T00:22:47;10.20;99.90
54824;DHT22;40724;53.196;5.980;2023-11-19T00:25:17;10.10;99.90
54824;DHT22;40724;53.196;5.980;2023-11-19T00:27:42;10.20;99.90
54824;DHT22;40724;53.196;5.980;2023-11-19T00:30:12;10.20;99.90
54824;DHT22;40724;53.196;5.980;2023-11-19T00:32:38;10.20;99.90
54824;DHT22;40724;53.196;5.980;2023-11-19T00:35:08;10.20;99.90
54824;DHT22;40724;53.196;5.980;2023-11-19T00:37:35;10.20;99.90
54824;DHT22;40724;53.196;5.980;2023-11-19T00:40:01;10.20;99.90
54824;DHT22;40724;53.196;5.980;2023-11-19T00:42:30;10.20;99.90
54824;DHT22;40724;53.196;5.980;2023-11-19T00:44:56;10.30;99.90
54824;DHT22;40724;53.196;5.980;2023-11-19T00:47:23;10.30;99.90
54824;DHT22;40724;53.196;5.980;2023-11-19T00:49:49;10.30;99.90
54824;DHT22;40724;53.196;5.980;2023-11-19T00:52:18;10.30;99.90
54824;DHT22;40724;53.196;5.980;2023-11-19T00:54:44;10.30;99.90
54824;DHT22;40724;53.196;5.980;2023-11-19T00:57:10;10.30;99.90
54824;DHT22;40724;53.196;5.980;2023-11-19T00:59:35;10.40;99.90
54824;DHT22;40724;53.196;5.980;2023-11-19T01:02:01;10.30;99.90
54824;DHT22;40724;53.196;5.980;2023-11-19T01:04:35;10.40;99.90
54824;DHT22;40724;53.196;5.980;2023-11-19T01:07:04;10.40;99.90
54824;DHT22;40724;53.196;5.980;2023-11-19T01:09:33;10.40;99.90
54824;DHT22;40724;53.196;5.980;2023-11-19T01:12:00;10.40;99.90
54824;DHT22;40724;53.196;5.980;2023-11-19T01:14:27;10.40;99.90
54824;DHT22;40724;53.196;5.980;2023-11-19T01:16:53;10.50;99.90
54824;DHT22;40724;53.196;5.980;2023-11-19T01:19:22;10.50;99.90
54824;DHT22;40724;53.196;5.980;2023-11-19T01:21:49;10.50;99.90
54824;DHT22;40724;53.196;5.980;2023-11-19T01:24:14;10.50;99.90
54824;DHT22;40724;53.196;5.980;2023-11-19T01:26:41;10.50;99.90
54824;DHT22;40724;53.196;5.980;2023-11-19T01:29:13;10.50;99.90
54824;DHT22;40724;53.196;5.980;2023-11-19T01:31:40;10.50;99.90
54824;DHT22;40724;53.196;5.980;2023-11-19T01:34:06;10.50;99.90
54824;DHT22;40724;53.196;5.980;2023-11-19T01:36:32;10.60;99.90
54824;DHT22;40724;53.196;5.980;2023-11-19T01:39:04;10.50;99.90
54824;DHT22;40724;53.196;5.980;2023-11-19T01:41:36;10.60;99.90
54824;DHT22;40724;53.196;5.980;2023-11-19T01:44:02;10.60;99.90
54824;DHT22;40724;53.196;5.980;2023-11-19T01:46:29;10.60;99.90
54824;DHT22;40724;53.196;5.980;2023-11-19T01:48:56;10.60;99.90
54824;DHT22;40724;53.196;5.980;2023-11-19T01:51:22;10.60;99.90
54824;DHT22;40724;53.196;5.980;2023-11-19T01:53:49;10.60;99.90
54824;DHT22;40724;53.196;5.980;2023-11-19T01:56:16;10.60;99.90
54824;DHT22;40724;53.196;5.980;2023-11-19T01:58:44;10.60;99.90
54824;DHT22;40724;53.196;5.980;2023-11-19T02:01:11;10.60;99.90
54824;DHT22;40724;53.196;5.980;2023-11-19T02:03:38;10.60;99.90
54824;DHT22;40724;53.196;5.980;2023-11-19T02:06:04;10.60;99.90
54824;DHT22;40724;53.196;5.980;2023-11-19T02:08:30;10.60;99.90
54824;DHT22;40724;53.196;5.980;2023-11-19T02:10:57;10.60;99.90
54824;DHT22;40724;53.196;5.980;2023-11-19T02:13:27;10.60;99.90
54824;DHT22;40724;53.196;5.980;2023-11-19T02:15:54;10.70;99.90
54824;DHT22;40724;53.196;5.980;2023-11-19T02:18:21;10.60;99.90
54824;DHT22;40724;53.196;5.980;2023-11-19T02:20:48;10.70;99.90
54824;DHT22;40724;53.196;5.980;2023-11-19T02:23:15;10.70;99.90
54824;DHT22;40724;53.196;5.980;2023-11-19T02:25:41;10.70;99.90
54824;DHT22;40724;53.196;5.980;2023-11-19T02:28:07;10.70;99.90
54824;DHT22;40724;53.196;5.980;2023-11-19T02:30:33;10.70;99.90
54824;DHT22;40724;53.196;5.980;2023-11-19T02:32:59;10.70;99.90
54824;DHT22;40724;53.196;5.980;2023-11-19T02:35:31;10.70;99.90
54824;DHT22;40724;53.196;5.980;2023-11-19T02:37:58;10.70;99.90
54824;DHT22;40724;53.196;5.980;2023-11-19T02:40:29;10.70;99.90
54824;DHT22;40724;53.196;5.980;2023-11-19T02:42:55;10.70;99.90
54824;DHT22;40724;53.196;5.980;2023-11-19T02:45:24;10.70;99.90
54824;DHT22;40724;53.196;5.980;2023-11-19T02:47:51;10.70;99.90
54824;DHT22;40724;53.196;5.980;2023-11-19T02:50:18;10.70;99.90
54824;DHT22;40724;53.196;5.980;2023-11-19T02:52:51;10.70;99.90
54824;DHT22;40724;53.196;5.980;2023-11-19T02:55:17;10.70;99.90
54824;DHT22;40724;53.196;5.980;2023-11-19T02:57:43;10.70;99.90
54824;DHT22;40724;53.196;5.980;2023-11-19T03:00:18;10.70;99.90
54824;DHT22;40724;53.196;5.980;2023-11-19T03:02:45;10.70;99.90
54824;DHT22;40724;53.196;5.980;2023-11-19T03:05:19;10.70;99.90
54824;DHT22;40724;53.196;5.980;2023-11-19T03:07:45;10.70;99.90
54824;DHT22;40724;53.196;5.980;2023-11-19T03:10:11;10.70;99.90
54824;DHT22;40724;53.196;5.980;2023-11-19T03:12:44;10.70;99.90
54824;DHT22;40724;53.196;5.980;2023-11-19T03:15:11;10.70;99.90
54824;DHT22;40724;53.196;5.980;2023-11-19T03:17:41;10.70;99.90
54824;DHT22;40724;53.196;5.980;2023-11-19T03:20:10;10.70;99.90
54824;DHT22;40724;53.196;5.980;2023-11-19T03:22:39;10.70;99.90
54824;DHT22;40724;53.196;5.980;2023-11-19T03:25:07;10.80;99.90
54824;DHT22;40724;53.196;5.980;2023-11-19T03:27:34;10.80;99.90
54824;DHT22;40724;53.196;5.980;2023-11-19T03:30:02;10.70;99.90
54824;DHT22;40724;53.196;5.980;2023-11-19T03:32:31;10.80;99.90
54824;DHT22;40724;53.196;5.980;2023-11-19T03:34:57;10.70;99.90
54824;DHT22;40724;53.196;5.980;2023-11-19T03:37:23;10.80;99.90
54824;DHT22;40724;53.196;5.980;2023-11-19T03:39:49;10.80;99.90
54824;DHT22;40724;53.196;5.980;2023-11-19T03:42:15;10.70;99.90
54824;DHT22;40724;53.196;5.980;2023-11-19T03:44:41;10.80;99.90
54824;DHT22;40724;53.196;5.980;2023-11-19T03:47:06;10.80;99.90
54824;DHT22;40724;53.196;5.980;2023-11-19T03:49:32;10.80;99.90
54824;DHT22;40724;53.196;5.980;2023-11-19T03:51:58;10.80;99.90
54824;DHT22;40724;53.196;5.980;2023-11-19T03:54:24;10.80;99.90
54824;DHT22;40724;53.196;5.980;2023-11-19T03:56:50;10.80;99.90
54824;DHT22;40724;53.196;5.980;2023-11-19T03:59:15;10.80;99.90
54824;DHT22;40724;53.196;5.980;2023-11-19T04:01:41;10.80;99.90
54824;DHT22;40724;53.196;5.980;2023-11-19T04:04:07;10.80;99.90
54824;DHT22;40724;53.196;5.980;2023-11-19T04:06:33;10.80;99.90
54824;DHT22;40724;53.196;5.980;2023-11-19T04:08:58;10.80;99.90
54824;DHT22;40724;53.196;5.980;2023-11-19T04:11:24;10.80;99.90
54824;DHT22;40724;53.196;5.980;2023-11-19T04:13:50;10.80;99.90
54824;DHT22;40724;53.196;5.980;2023-11-19T04:16:15;10.80;99.90
54824;DHT22;40724;53.196;5.980;2023-11-19T04:18:41;10.80;99.90
54824;DHT22;40724;53.196;5.980;2023-11-19T04:21:08;10.80;99.90
54824;DHT22;40724;53.196;5.980;2023-11-19T04:23:33;10.80;99.90
54824;DHT22;40724;53.196;5.980;2023-11-19T04:26:02;10.80;99.90
54824;DHT22;40724;53.196;5.980;2023-11-19T04:28:30;10.80;99.90
54824;DHT22;40724;53.196;5.980;2023-11-19T04:30:55;10.80;99.90
54824;DHT22;40724;53.196;5.980;2023-11-19T04:33:21;10.80;99.90
54824;DHT22;40724;53.196;5.980;2023-11-19T04:35:47;10.80;99.90
54824;DHT22;40724;53.196;5.980;2023-11-19T04:38:14;10.80;99.90
54824;DHT22;40724;53.196;5.980;2023-11-19T04:40:40;10.80;99.90
54824;DHT22;40724;53.196;5.980;2023-11-19T04:43:07;10.80;99.90
54824;DHT22;40724;53.196;5.980;2023-11-19T04:45:33;10.80;99.90
54824;DHT22;40724;53.196;5.980;2023-11-19T04:47:59;10.80;99.90
54824;DHT22;40724;53.196;5.980;2023-11-19T04:50:25;10.80;99.90
54824;DHT22;40724;53.196;5.980;2023-11-19T04:52:52;10.80;99.90
54824;DHT22;40724;53.196;5.980;2023-11-19T04:55:19;10.80;99.90
54824;DHT22;40724;53.196;5.980;2023-11-19T04:57:45;10.80;99.90
54824;DHT22;40724;53.196;5.980;2023-11-19T05:00:11;10.80;99.90
54824;DHT22;40724;53.196;5.980;2023-11-19T05:02:37;10.80;99.90
54824;DHT22;40724;53.196;5.980;2023-11-19T05:05:03;10.80;99.90
54824;DHT22;40724;53.196;5.980;2023-11-19T05:07:33;10.80;99.90
54824;DHT22;40724;53.196;5.980;2023-11-19T05:09:58;10.80;99.90
54824;DHT22;40724;53.196;5.980;2023-11-19T05:12:24;10.80;99.90
54824;DHT22;40724;53.196;5.980;2023-11-19T05:14:50;10.80;99.90
54824;DHT22;40724;53.196;5.980;2023-11-19T05:17:17;10.80;99.90
54824;DHT22;40724;53.196;5.980;2023-11-19T05:19:46;10.80;99.90
54824;DHT22;40724;53.196;5.980;2023-11-19T05:22:13;10.80;99.90
54824;DHT22;40724;53.196;5.980;2023-11-19T05:24:39;10.80;99.90
54824;DHT22;40724;53.196;5.980;2023-11-19T05:27:06;10.80;99.90
54824;DHT22;40724;53.196;5.980;2023-11-19T05:29:33;10.80;99.90
54824;DHT22;40724;53.196;5.980;2023-11-19T05:31:59;10.80;99.90
54824;DHT22;40724;53.196;5.980;2023-11-19T05:34:25;10.80;99.90
54824;DHT22;40724;53.196;5.980;2023-11-19T05:36:51;10.80;99.90
54824;DHT22;40724;53.196;5.980;2023-11-19T05:39:17;10.80;99.90
54824;DHT22;40724;53.196;5.980;2023-11-19T05:41:46;10.80;99.90
54824;DHT22;40724;53.196;5.980;2023-11-19T05:44:11;10.80;99.90
54824;DHT22;40724;53.196;5.980;2023-11-19T05:46:37;10.80;99.90
54824;DHT22;40724;53.196;5.980;2023-11-19T05:49:08;10.80;99.90
54824;DHT22;40724;53.196;5.980;2023-11-19T05:51:40;10.80;99.90
54824;DHT22;40724;53.196;5.980;2023-11-19T05:54:09;10.80;99.90
54824;DHT22;40724;53.196;5.980;2023-11-19T05:56:35;10.80;99.90
54824;DHT22;40724;53.196;5.980;2023-11-19T05:59:02;10.80;99.90
54824;DHT22;40724;53.196;5.980;2023-11-19T06:01:29;10.80;99.90
54824;DHT22;40724;53.196;5.980;2023-11-19T06:03:55;10.80;99.90
54824;DHT22;40724;53.196;5.980;2023-11-19T06:06:21;10.80;99.90
54824;DHT22;40724;53.196;5.980;2023-11-19T06:08:47;10.80;99.90
54824;DHT22;40724;53.196;5.980;2023-11-19T06:11:13;10.80;99.90
54824;DHT22;40724;53.196;5.980;2023-11-19T06:13:44;10.80;99.90
54824;DHT22;40724;53.196;5.980;2023-11-19T06:16:10;10.80;99.90
54824;DHT22;40724;53.196;5.980;2023-11-19T06:18:38;10.80;99.90
54824;DHT22;40724;53.196;5.980;2023-11-19T06:21:04;10.80;99.90
54824;DHT22;40724;53.196;5.980;2023-11-19T06:23:31;10.80;99.90
54824;DHT22;40724;53.196;5.980;2023-11-19T06:25:57;10.80;99.90
54824;DHT22;40724;53.196;5.980;2023-11-19T06:28:22;10.80;99.90
54824;DHT22;40724;53.196;5.980;2023-11-19T06:30:48;10.80;99.90
54824;DHT22;40724;53.196;5.980;2023-11-19T06:33:14;10.80;99.90
54824;DHT22;40724;53.196;5.980;2023-11-19T06:35:40;10.80;99.90
54824;DHT22;40724;53.196;5.980;2023-11-19T06:38:06;10.80;99.90
54824;DHT22;40724;53.196;5.980;2023-11-19T06:40:32;10.80;99.90
54824;DHT22;40724;53.196;5.980;2023-11-19T06:42:58;10.90;99.90
54824;DHT22;40724;53.196;5.980;2023-11-19T06:45:24;10.80;99.90
54824;DHT22;40724;53.196;5.980;2023-11-19T06:47:50;10.80;99.90
54824;DHT22;40724;53.196;5.980;2023-11-19T06:50:16;10.80;99.90
54824;DHT22;40724;53.196;5.980;2023-11-19T06:52:43;10.80;99.90
54824;DHT22;40724;53.196;5.980;2023-11-19T06:55:09;10.80;99.90
54824;DHT22;40724;53.196;5.980;2023-11-19T06:57:35;10.80;99.90
54824;DHT22;40724;53.196;5.980;2023-11-19T07:00:02;10.80;99.90
54824;DHT22;40724;53.196;5.980;2023-11-19T07:02:28;10.80;99.90
54824;DHT22;40724;53.196;5.980;2023-11-19T07:04:54;10.80;99.90
54824;DHT22;40724;53.196;5.980;2023-11-19T07:07:20;10.80;99.90
54824;DHT22;40724;53.196;5.980;2023-11-19T07:09:45;10.80;99.90
54824;DHT22;40724;53.196;5.980;2023-11-19T07:12:11;10.80;99.90
54824;DHT22;40724;53.196;5.980;2023-11-19T07:14:38;10.80;99.90
54824;DHT22;40724;53.196;5.980;2023-11-19T07:17:04;10.80;99.90
54824;DHT22;40724;53.196;5.980;2023-11-19T07:19:30;10.80;99.90
54824;DHT22;40724;53.196;5.980;2023-11-19T07:21:55;10.80;99.90
54824;DHT22;40724;53.196;5.980;2023-11-19T07:24:21;10.80;99.90
54824;DHT22;40724;53.196;5.980;2023-11-19T07:26:48;10.80;99.90
54824;DHT22;40724;53.196;5.980;2023-11-19T07:29:14;10.80;99.90
54824;DHT22;40724;53.196;5.980;2023-11-19T07:31:44;10.80;99.90
54824;DHT22;40724;53.196;5.980;2023-11-19T07:34:11;10.80;99.90
54824;DHT22;40724;53.196;5.980;2023-11-19T07:36:37;10.80;99.90
54824;DHT22;40724;53.196;5.980;2023-11-19T07:39:04;10.80;99.90
54824;DHT22;40724;53.196;5.980;2023-11-19T07:41:31;10.80;99.90
54824;DHT22;40724;53.196;5.980;2023-11-19T07:43:57;10.80;99.90
54824;DHT22;40724;53.196;5.980;2023-11-19T07:46:22;10.80;99.90
54824;DHT22;40724;53.196;5.980;2023-11-19T07:48:48;10.80;99.90
54824;DHT22;40724;53.196;5.980;2023-11-19T07:51:14;10.80;99.90
54824;DHT22;40724;53.196;5.980;2023-11-19T07:53:41;10.80;99.90
54824;DHT22;40724;53.196;5.980;2023-11-19T07:56:08;10.80;99.90
54824;DHT22;40724;53.196;5.980;2023-11-19T07:58:34;10.90;99.90
54824;DHT22;40724;53.196;5.980;2023-11-19T08:01:00;10.80;99.90
54824;DHT22;40724;53.196;5.980;2023-11-19T08:03:27;10.80;99.90
54824;DHT22;40724;53.196;5.980;2023-11-19T08:05:56;10.90;99.90
54824;DHT22;40724;53.196;5.980;2023-11-19T08:08:22;10.90;99.90
54824;DHT22;40724;53.196;5.980;2023-11-19T08:10:48;10.90;99.90
54824;DHT22;40724;53.196;5.980;2023-11-19T08:13:14;10.90;99.90
54824;DHT22;40724;53.196;5.980;2023-11-19T08:15:40;10.90;99.90
54824;DHT22;40724;53.196;5.980;2023-11-19T08:18:06;10.90;99.90
54824;DHT22;40724;53.196;5.980;2023-11-19T08:20:33;10.90;99.90
54824;DHT22;40724;53.196;5.980;2023-11-19T08:22:59;10.90;99.90
54824;DHT22;40724;53.196;5.980;2023-11-19T08:25:25;10.90;99.90
54824;DHT22;40724;53.196;5.980;2023-11-19T08:27:50;10.90;99.90
54824;DHT22;40724;53.196;5.980;2023-11-19T08:30:16;10.90;99.90
54824;DHT22;40724;53.196;5.980;2023-11-19T08:32:42;10.90;99.90
54824;DHT22;40724;53.196;5.980;2023-11-19T08:35:08;10.90;99.90
54824;DHT22;40724;53.196;5.980;2023-11-19T08:37:34;10.90;99.90
54824;DHT22;40724;53.196;5.980;2023-11-19T08:40:02;11.00;99.90
54824;DHT22;40724;53.196;5.980;2023-11-19T08:42:28;10.90;99.90
54824;DHT22;40724;53.196;5.980;2023-11-19T08:44:55;11.00;99.90
54824;DHT22;40724;53.196;5.980;2023-11-19T08:47:20;11.00;99.90
54824;DHT22;40724;53.196;5.980;2023-11-19T08:49:50;11.00;99.90
54824;DHT22;40724;53.196;5.980;2023-11-19T08:52:17;11.00;99.90
54824;DHT22;40724;53.196;5.980;2023-11-19T08:54:43;11.00;99.90
54824;DHT22;40724;53.196;5.980;2023-11-19T08:57:09;11.00;99.90
54824;DHT22;40724;53.196;5.980;2023-11-19T08:59:35;11.00;99.90
54824;DHT22;40724;53.196;5.980;2023-11-19T09:02:04;11.00;99.90
54824;DHT22;40724;53.196;5.980;2023-11-19T09:04:29;11.00;99.90
54824;DHT22;40724;53.196;5.980;2023-11-19T09:06:57;11.00;99.90
54824;DHT22;40724;53.196;5.980;2023-11-19T09:09:23;11.10;99.90
54824;DHT22;40724;53.196;5.980;2023-11-19T09:11:49;11.10;99.90
54824;DHT22;40724;53.196;5.980;2023-11-19T09:14:15;11.10;99.90
54824;DHT22;40724;53.196;5.980;2023-11-19T09:16:41;11.20;99.90
54824;DHT22;40724;53.196;5.980;2023-11-19T09:19:06;11.20;99.90
54824;DHT22;40724;53.196;5.980;2023-11-19T09:21:32;11.20;99.90
54824;DHT22;40724;53.196;5.980;2023-11-19T09:24:00;11.20;99.90
54824;DHT22;40724;53.196;5.980;2023-11-19T09:26:25;11.30;99.90
54824;DHT22;40724;53.196;5.980;2023-11-19T09:28:51;11.30;99.90
54824;DHT22;40724;53.196;5.980;2023-11-19T09:31:18;11.30;99.90
54824;DHT22;40724;53.196;5.980;2023-11-19T09:33:44;11.30;99.90
54824;DHT22;40724;53.196;5.980;2023-11-19T09:36:12;11.30;99.90
54824;DHT22;40724;53.196;5.980;2023-11-19T09:38:40;11.30;99.90
54824;DHT22;40724;53.196;5.980;2023-11-19T09:41:06;11.40;99.90
54824;DHT22;40724;53.196;5.980;2023-11-19T09:43:34;11.40;99.90
54824;DHT22;40724;53.196;5.980;2023-11-19T09:46:04;11.40;99.90
54824;DHT22;40724;53.196;5.980;2023-11-19T09:48:33;11.40;99.90
54824;DHT22;40724;53.196;5.980;2023-11-19T09:51:00;11.50;99.90
54824;DHT22;40724;53.196;5.980;2023-11-19T09:53:27;11.50;99.90
54824;DHT22;40724;53.196;5.980;2023-11-19T09:55:53;11.50;99.90
54824;DHT22;40724;53.196;5.980;2023-11-19T09:58:20;11.50;99.90
54824;DHT22;40724;53.196;5.980;2023-11-19T10:00:47;11.50;99.90
54824;DHT22;40724;53.196;5.980;2023-11-19T10:03:14;11.50;99.90
54824;DHT22;40724;53.196;5.980;2023-11-19T10:05:39;11.50;99.90
54824;DHT22;40724;53.196;5.980;2023-11-19T10:08:07;11.50;99.90
54824;DHT22;40724;53.196;5.980;2023-11-19T10:10:34;11.60;99.90
54824;DHT22;40724;53.196;5.980;2023-11-19T10:13:00;11.60;99.90
54824;DHT22;40724;53.196;5.980;2023-11-19T10:15:26;11.60;99.90
54824;DHT22;40724;53.196;5.980;2023-11-19T10:18:01;11.60;99.90
54824;DHT22;40724;53.196;5.980;2023-11-19T10:20:27;11.60;99.90
54824;DHT22;40724;53.196;5.980;2023-11-19T10:22:56;11.60;99.90
54824;DHT22;40724;53.196;5.980;2023-11-19T10:25:22;11.60;99.90
54824;DHT22;40724;53.196;5.980;2023-11-19T10:27:49;11.70;99.90
54824;DHT22;40724;53.196;5.980;2023-11-19T10:30:26;11.70;99.90
54824;DHT22;40724;53.196;5.980;2023-11-19T10:33:11;11.70;99.90
54824;DHT22;40724;53.196;5.980;2023-11-19T10:35:53;11.80;99.90
54824;DHT22;40724;53.196;5.980;2023-11-19T10:38:19;11.80;99.90
54824;DHT22;40724;53.196;5.980;2023-11-19T10:40:45;11.80;99.90
54824;DHT22;40724;53.196;5.980;2023-11-19T10:43:11;11.90;99.90
54824;DHT22;40724;53.196;5.980;2023-11-19T10:45:38;11.90;99.90
54824;DHT22;40724;53.196;5.980;2023-11-19T10:48:05;11.90;99.90
54824;DHT22;40724;53.196;5.980;2023-11-19T10:50:37;11.90;99.90
54824;DHT22;40724;53.196;5.980;2023-11-19T10:53:04;11.90;99.90
54824;DHT22;40724;53.196;5.980;2023-11-19T10:55:32;11.90;99.90
54824;DHT22;40724;53.196;5.980;2023-11-19T10:58:08;11.90;99.90
54824;DHT22;40724;53.196;5.980;2023-11-19T11:00:38;11.90;99.90
54824;DHT22;40724;53.196;5.980;2023-11-19T11:03:16;12.00;99.90
54824;DHT22;40724;53.196;5.980;2023-11-19T11:05:43;12.00;99.90
54824;DHT22;40724;53.196;5.980;2023-11-19T11:08:09;12.00;99.90
54824;DHT22;40724;53.196;5.980;2023-11-19T11:10:41;12.00;99.90
54824;DHT22;40724;53.196;5.980;2023-11-19T11:13:08;12.00;99.90
54824;DHT22;40724;53.196;5.980;2023-11-19T11:15:34;12.00;99.90
54824;DHT22;40724;53.196;5.980;2023-11-19T11:18:02;12.00;99.90
54824;DHT22;40724;53.196;5.980;2023-11-19T11:20:32;12.00;99.90
54824;DHT22;40724;53.196;5.980;2023-11-19T11:29:01;12.10;99.90
54824;DHT22;40724;53.196;5.980;2023-11-19T11:39:36;12.00;99.90
54824;DHT22;40724;53.196;5.980;2023-11-19T11:45:08;12.10;99.90
54824;DHT22;40724;53.196;5.980;2023-11-19T11:50:12;12.10;99.90
54824;DHT22;40724;53.196;5.980;2023-11-19T11:55:28;12.80;99.90
54824;DHT22;40724;53.196;5.980;2023-11-19T12:00:31;13.20;99.90
54824;DHT22;40724;53.196;5.980;2023-11-19T12:02:59;14.00;99.90
54824;DHT22;40724;53.196;5.980;2023-11-19T12:07:55;14.30;99.90
54824;DHT22;40724;53.196;5.980;2023-11-19T15:24:09;14.30;99.90
54824;DHT22;40724;53.196;5.980;2023-11-19T15:34:01;12.50;99.90
54824;DHT22;40724;53.196;5.980;2023-11-19T15:56:04;12.40;99.90
54824;DHT22;40724;53.196;5.980;2023-11-19T15:58:31;12.20;99.90
54824;DHT22;40724;53.196;5.980;2023-11-19T16:00:57;12.20;99.90
54824;DHT22;40724;53.196;5.980;2023-11-19T16:03:22;12.20;99.90
54824;DHT22;40724;53.196;5.980;2023-11-19T16:05:48;12.10;99.90
54824;DHT22;40724;53.196;5.980;2023-11-19T16:08:14;12.10;99.90
54824;DHT22;40724;53.196;5.980;2023-11-19T16:10:41;12.10;99.90
54824;DHT22;40724;53.196;5.980;2023-11-19T16:13:11;12.10;99.90
54824;DHT22;40724;53.196;5.980;2023-11-19T16:15:37;12.10;99.90
54824;DHT22;40724;53.196;5.980;2023-11-19T16:18:03;12.10;99.90
54824;DHT22;40724;53.196;5.980;2023-11-19T16:20:29;12.10;99.90
54824;DHT22;40724;53.196;5.980;2023-11-19T16:22:59;12.10;99.90
54824;DHT22;40724;53.196;5.980;2023-11-19T16:25:26;12.10;99.90
54824;DHT22;40724;53.196;5.980;2023-11-19T16:27:52;12.00;99.90
54824;DHT22;40724;53.196;5.980;2023-11-19T16:30:18;12.00;99.90
54824;DHT22;40724;53.196;5.980;2023-11-19T16:33:00;12.00;99.90
54824;DHT22;40724;53.196;5.980;2023-11-19T16:35:26;12.00;99.90
54824;DHT22;40724;53.196;5.980;2023-11-19T16:37:52;12.00;99.90
54824;DHT22;40724;53.196;5.980;2023-11-19T16:40:18;12.00;99.90
54824;DHT22;40724;53.196;5.980;2023-11-19T16:42:44;12.00;99.90
54824;DHT22;40724;53.196;5.980;2023-11-19T16:45:12;11.90;99.90
54824;DHT22;40724;53.196;5.980;2023-11-19T16:47:39;11.90;99.90
54824;DHT22;40724;53.196;5.980;2023-11-19T16:50:05;11.90;99.90
54824;DHT22;40724;53.196;5.980;2023-11-19T16:52:31;11.90;99.90
54824;DHT22;40724;53.196;5.980;2023-11-19T16:55:00;11.90;99.90
54824;DHT22;40724;53.196;5.980;2023-11-19T16:57:29;11.90;99.90
54824;DHT22;40724;53.196;5.980;2023-11-19T16:59:56;11.90;99.90
54824;DHT22;40724;53.196;5.980;2023-11-19T17:02:26;11.90;99.90
54824;DHT22;40724;53.196;5.980;2023-11-19T17:04:51;11.80;99.90
54824;DHT22;40724;53.196;5.980;2023-11-19T17:07:17;11.80;99.90
54824;DHT22;40724;53.196;5.980;2023-11-19T17:09:43;11.80;99.90
54824;DHT22;40724;53.196;5.980;2023-11-19T17:12:09;11.80;99.90
54824;DHT22;40724;53.196;5.980;2023-11-19T17:14:36;11.80;99.90
54824;DHT22;40724;53.196;5.980;2023-11-19T17:17:02;11.80;99.90
54824;DHT22;40724;53.196;5.980;2023-11-19T17:19:28;11.80;99.90
54824;DHT22;40724;53.196;5.980;2023-11-19T17:21:54;11.80;99.90
54824;DHT22;40724;53.196;5.980;2023-11-19T17:24:20;11.80;99.90
54824;DHT22;40724;53.196;5.980;2023-11-19T17:26:46;11.80;99.90
54824;DHT22;40724;53.196;5.980;2023-11-19T17:29:12;11.80;99.90
54824;DHT22;40724;53.196;5.980;2023-11-19T17:31:38;11.70;99.90
54824;DHT22;40724;53.196;5.980;2023-11-19T17:34:04;11.80;99.90
54824;DHT22;40724;53.196;5.980;2023-11-19T17:36:30;11.70;99.90
54824;DHT22;40724;53.196;5.980;2023-11-19T17:38:57;11.70;99.90
54824;DHT22;40724;53.196;5.980;2023-11-19T17:41:23;11.70;99.90
54824;DHT22;40724;53.196;5.980;2023-11-19T17:43:48;11.70;99.90
54824;DHT22;40724;53.196;5.980;2023-11-19T17:46:15;11.70;99.90
54824;DHT22;40724;53.196;5.980;2023-11-19T17:48:42;11.70;99.90
54824;DHT22;40724;53.196;5.980;2023-11-19T17:51:07;11.70;99.90
54824;DHT22;40724;53.196;5.980;2023-11-19T17:53:33;11.70;99.90
54824;DHT22;40724;53.196;5.980;2023-11-19T17:56:01;11.70;99.90
54824;DHT22;40724;53.196;5.980;2023-11-19T17:58:29;11.70;99.90
54824;DHT22;40724;53.196;5.980;2023-11-19T18:00:57;11.70;99.90
54824;DHT22;40724;53.196;5.980;2023-11-19T18:03:22;11.60;99.90
54824;DHT22;40724;53.196;5.980;2023-11-19T18:05:48;11.60;99.90
54824;DHT22;40724;53.196;5.980;2023-11-19T18:08:14;11.60;99.90
54824;DHT22;40724;53.196;5.980;2023-11-19T18:10:45;11.60;99.90
54824;DHT22;40724;53.196;5.980;2023-11-19T18:13:11;11.60;99.90
54824;DHT22;40724;53.196;5.980;2023-11-19T18:15:37;11.60;99.90
54824;DHT22;40724;53.196;5.980;2023-11-19T18:18:03;11.60;99.90
54824;DHT22;40724;53.196;5.980;2023-11-19T18:20:29;11.60;99.90
54824;DHT22;40724;53.196;5.980;2023-11-19T18:22:55;11.60;99.90
54824;DHT22;40724;53.196;5.980;2023-11-19T18:25:21;11.60;99.90
54824;DHT22;40724;53.196;5.980;2023-11-19T18:27:47;11.60;99.90
54824;DHT22;40724;53.196;5.980;2023-11-19T18:30:14;11.60;99.90
54824;DHT22;40724;53.196;5.980;2023-11-19T18:32:40;11.60;99.90
54824;DHT22;40724;53.196;5.980;2023-11-19T18:35:10;11.60;99.90
54824;DHT22;40724;53.196;5.980;2023-11-19T18:37:39;11.60;99.90
54824;DHT22;40724;53.196;5.980;2023-11-19T18:40:06;11.60;99.90
54824;DHT22;40724;53.196;5.980;2023-11-19T18:42:34;11.60;99.90
54824;DHT22;40724;53.196;5.980;2023-11-19T18:45:02;11.60;99.90
54824;DHT22;40724;53.196;5.980;2023-11-19T18:47:30;11.60;99.90
54824;DHT22;40724;53.196;5.980;2023-11-19T18:49:55;11.50;99.90
54824;DHT22;40724;53.196;5.980;2023-11-19T18:52:21;11.50;99.90
54824;DHT22;40724;53.196;5.980;2023-11-19T18:54:47;11.50;99.90
54824;DHT22;40724;53.196;5.980;2023-11-19T18:57:13;11.50;99.90
54824;DHT22;40724;53.196;5.980;2023-11-19T18:59:38;11.50;99.90
54824;DHT22;40724;53.196;5.980;2023-11-19T19:02:04;11.50;99.90
54824;DHT22;40724;53.196;5.980;2023-11-19T19:04:30;11.50;99.90
54824;DHT22;40724;53.196;5.980;2023-11-19T19:06:56;11.50;99.90
54824;DHT22;40724;53.196;5.980;2023-11-19T19:09:22;11.50;99.90
54824;DHT22;40724;53.196;5.980;2023-11-19T19:11:48;11.50;99.90
54824;DHT22;40724;53.196;5.980;2023-11-19T19:14:15;11.50;99.90
54824;DHT22;40724;53.196;5.980;2023-11-19T19:16:41;11.50;99.90
54824;DHT22;40724;53.196;5.980;2023-11-19T19:19:07;11.50;99.90
54824;DHT22;40724;53.196;5.980;2023-11-19T19:21:33;11.50;99.90
54824;DHT22;40724;53.196;5.980;2023-11-19T19:23:58;11.50;99.90
54824;DHT22;40724;53.196;5.980;2023-11-19T19:26:31;11.50;99.90
54824;DHT22;40724;53.196;5.980;2023-11-19T19:28:57;11.50;99.90
54824;DHT22;40724;53.196;5.980;2023-11-19T19:31:24;11.50;99.90
54824;DHT22;40724;53.196;5.980;2023-11-19T19:33:51;11.50;99.90
54824;DHT22;40724;53.196;5.980;2023-11-19T19:36:27;11.40;99.90